sensor_id;sensor_type;location;lat;lon;timestamp;P1;durP1;ratioP1;P2;durP2;ratioP2
26600;SDS011;14241;49.260;10.496;2023-04-06T00:00:30;13.02;;;10.25;;
26600;SDS011;14241;49.260;10.496;2023-04-06T00:02:56;10.45;;;7.93;;
26600;SDS011;14241;49.260;10.496;2023-04-06T00:05:21;8.63;;;7.15;;
26600;SDS011;14241;49.260;10.496;2023-04-06T00:07:48;8.43;;;7.25;;
26600;SDS011;14241;49.260;10.496;2023-04-06T00:10:13;9.48;;;7.13;;
26600;SDS011;14241;49.260;10.496;2023-04-06T00:12:38;10.52;;;7.25;;
26600;SDS011;14241;49.260;10.496;2023-04-06T00:15:04;8.30;;;7.03;;
26600;SDS011;14241;49.260;10.496;2023-04-06T00:17:30;8.68;;;7.00;;
26600;SDS011;14241;49.260;10.496;2023-04-06T00:19:56;8.63;;;7.40;;
26600;SDS011;14241;49.260;10.496;2023-04-06T00:22:21;11.20;;;7.60;;
26600;SDS011;14241;49.260;10.496;2023-04-06T00:24:46;10.55;;;8.25;;
26600;SDS011;14241;49.260;10.496;2023-04-06T00:27:11;13.02;;;8.85;;
26600;SDS011;14241;49.260;10.496;2023-04-06T00:29:37;10.70;;;9.20;;
26600;SDS011;14241;49.260;10.496;2023-04-06T00:32:03;12.88;;;9.68;;
26600;SDS011;14241;49.260;10.496;2023-04-06T00:34:29;13.57;;;8.70;;
26600;SDS011;14241;49.260;10.496;2023-04-06T00:36:54;12.23;;;9.35;;
26600;SDS011;14241;49.260;10.496;2023-04-06T00:39:19;10.30;;;9.27;;
26600;SDS011;14241;49.260;10.496;2023-04-06T00:41:46;10.73;;;9.35;;
26600;SDS011;14241;49.260;10.496;2023-04-06T00:44:11;14.00;;;9.52;;
26600;SDS011;14241;49.260;10.496;2023-04-06T00:46:36;11.90;;;8.98;;
26600;SDS011;14241;49.260;10.496;2023-04-06T00:49:02;13.43;;;9.35;;
26600;SDS011;14241;49.260;10.496;2023-04-06T00:51:27;10.77;;;9.35;;
26600;SDS011;14241;49.260;10.496;2023-04-06T00:53:52;10.73;;;9.35;;
26600;SDS011;14241;49.260;10.496;2023-04-06T00:56:18;11.65;;;9.70;;
26600;SDS011;14241;49.260;10.496;2023-04-06T00:58:43;10.30;;;9.05;;
26600;SDS011;14241;49.260;10.496;2023-04-06T01:01:08;11.95;;;8.93;;
26600;SDS011;14241;49.260;10.496;2023-04-06T01:03:34;12.77;;;9.82;;
26600;SDS011;14241;49.260;10.496;2023-04-06T01:05:59;11.10;;;9.23;;
26600;SDS011;14241;49.260;10.496;2023-04-06T01:08:24;13.95;;;9.68;;
26600;SDS011;14241;49.260;10.496;2023-04-06T01:10:50;11.35;;;10.15;;
26600;SDS011;14241;49.260;10.496;2023-04-06T01:13:15;13.65;;;9.90;;
26600;SDS011;14241;49.260;10.496;2023-04-06T01:15:41;11.45;;;9.63;;
26600;SDS011;14241;49.260;10.496;2023-04-06T01:18:10;10.55;;;9.43;;
26600;SDS011;14241;49.260;10.496;2023-04-06T01:20:35;12.10;;;10.13;;
26600;SDS011;14241;49.260;10.496;2023-04-06T01:23:00;11.82;;;9.32;;
26600;SDS011;14241;49.260;10.496;2023-04-06T01:25:26;11.25;;;9.20;;
26600;SDS011;14241;49.260;10.496;2023-04-06T01:27:51;11.80;;;9.95;;
26600;SDS011;14241;49.260;10.496;2023-04-06T01:30:17;13.70;;;9.77;;
26600;SDS011;14241;49.260;10.496;2023-04-06T01:32:42;11.25;;;9.43;;
26600;SDS011;14241;49.260;10.496;2023-04-06T01:35:08;11.68;;;9.75;;
26600;SDS011;14241;49.260;10.496;2023-04-06T01:37:33;14.00;;;10.55;;
26600;SDS011;14241;49.260;10.496;2023-04-06T01:39:59;10.73;;;9.57;;
26600;SDS011;14241;49.260;10.496;2023-04-06T01:42:24;12.73;;;9.77;;
26600;SDS011;14241;49.260;10.496;2023-04-06T01:44:51;10.07;;;9.05;;
26600;SDS011;14241;49.260;10.496;2023-04-06T01:47:16;10.88;;;9.18;;
26600;SDS011;14241;49.260;10.496;2023-04-06T01:49:41;10.25;;;8.77;;
26600;SDS011;14241;49.260;10.496;2023-04-06T01:52:07;11.18;;;9.40;;
26600;SDS011;14241;49.260;10.496;2023-04-06T01:54:32;12.52;;;8.98;;
26600;SDS011;14241;49.260;10.496;2023-04-06T01:56:57;11.43;;;9.48;;
26600;SDS011;14241;49.260;10.496;2023-04-06T01:59:23;11.70;;;9.68;;
26600;SDS011;14241;49.260;10.496;2023-04-06T02:01:48;10.98;;;9.52;;
26600;SDS011;14241;49.260;10.496;2023-04-06T02:04:13;12.60;;;9.57;;
26600;SDS011;14241;49.260;10.496;2023-04-06T02:06:39;9.57;;;8.55;;
26600;SDS011;14241;49.260;10.496;2023-04-06T02:09:05;11.40;;;9.30;;
26600;SDS011;14241;49.260;10.496;2023-04-06T02:11:30;14.77;;;9.75;;
26600;SDS011;14241;49.260;10.496;2023-04-06T02:13:56;10.30;;;9.18;;
26600;SDS011;14241;49.260;10.496;2023-04-06T02:16:21;12.23;;;9.68;;
26600;SDS011;14241;49.260;10.496;2023-04-06T02:18:47;14.30;;;10.15;;
26600;SDS011;14241;49.260;10.496;2023-04-06T02:21:12;10.18;;;9.18;;
26600;SDS011;14241;49.260;10.496;2023-04-06T02:23:37;10.35;;;9.20;;
26600;SDS011;14241;49.260;10.496;2023-04-06T02:26:03;10.20;;;9.07;;
26600;SDS011;14241;49.260;10.496;2023-04-06T02:28:28;10.20;;;9.10;;
26600;SDS011;14241;49.260;10.496;2023-04-06T02:30:53;11.02;;;9.02;;
26600;SDS011;14241;49.260;10.496;2023-04-06T02:33:18;12.00;;;8.77;;
26600;SDS011;14241;49.260;10.496;2023-04-06T02:35:44;11.63;;;9.45;;
26600;SDS011;14241;49.260;10.496;2023-04-06T02:38:09;10.27;;;9.05;;
26600;SDS011;14241;49.260;10.496;2023-04-06T02:40:35;10.95;;;8.73;;
26600;SDS011;14241;49.260;10.496;2023-04-06T02:43:00;10.90;;;8.85;;
26600;SDS011;14241;49.260;10.496;2023-04-06T02:45:25;13.40;;;9.35;;
26600;SDS011;14241;49.260;10.496;2023-04-06T02:47:51;9.77;;;8.77;;
26600;SDS011;14241;49.260;10.496;2023-04-06T02:50:16;12.27;;;9.40;;
26600;SDS011;14241;49.260;10.496;2023-04-06T02:52:42;9.90;;;8.90;;
26600;SDS011;14241;49.260;10.496;2023-04-06T02:55:07;9.85;;;8.85;;
26600;SDS011;14241;49.260;10.496;2023-04-06T02:57:33;10.15;;;8.90;;
26600;SDS011;14241;49.260;10.496;2023-04-06T02:59:58;11.77;;;9.00;;
26600;SDS011;14241;49.260;10.496;2023-04-06T03:02:23;12.35;;;9.73;;
26600;SDS011;14241;49.260;10.496;2023-04-06T03:04:50;10.20;;;9.10;;
26600;SDS011;14241;49.260;10.496;2023-04-06T03:07:15;10.65;;;9.23;;
26600;SDS011;14241;49.260;10.496;2023-04-06T03:09:40;11.15;;;9.02;;
26600;SDS011;14241;49.260;10.496;2023-04-06T03:12:06;10.73;;;9.40;;
26600;SDS011;14241;49.260;10.496;2023-04-06T03:14:31;11.48;;;8.77;;
26600;SDS011;14241;49.260;10.496;2023-04-06T03:16:56;12.30;;;9.30;;
26600;SDS011;14241;49.260;10.496;2023-04-06T03:19:22;11.18;;;9.20;;
26600;SDS011;14241;49.260;10.496;2023-04-06T03:21:47;11.73;;;9.15;;
26600;SDS011;14241;49.260;10.496;2023-04-06T03:24:12;11.43;;;9.75;;
26600;SDS011;14241;49.260;10.496;2023-04-06T03:26:38;10.52;;;9.30;;
26600;SDS011;14241;49.260;10.496;2023-04-06T03:29:04;14.40;;;9.18;;
26600;SDS011;14241;49.260;10.496;2023-04-06T03:31:29;12.80;;;9.55;;
26600;SDS011;14241;49.260;10.496;2023-04-06T03:33:55;13.23;;;9.52;;
26600;SDS011;14241;49.260;10.496;2023-04-06T03:36:20;13.15;;;8.57;;
26600;SDS011;14241;49.260;10.496;2023-04-06T03:38:45;12.57;;;9.98;;
26600;SDS011;14241;49.260;10.496;2023-04-06T03:41:11;10.52;;;9.20;;
26600;SDS011;14241;49.260;10.496;2023-04-06T03:43:36;11.57;;;9.10;;
26600;SDS011;14241;49.260;10.496;2023-04-06T03:46:01;11.35;;;9.35;;
26600;SDS011;14241;49.260;10.496;2023-04-06T03:48:27;13.88;;;9.18;;
26600;SDS011;14241;49.260;10.496;2023-04-06T03:50:52;12.48;;;8.80;;
26600;SDS011;14241;49.260;10.496;2023-04-06T03:53:17;11.43;;;9.10;;
26600;SDS011;14241;49.260;10.496;2023-04-06T03:55:43;9.63;;;8.63;;
26600;SDS011;14241;49.260;10.496;2023-04-06T03:58:08;14.57;;;9.45;;
26600;SDS011;14241;49.260;10.496;2023-04-06T04:00:33;11.38;;;9.65;;
26600;SDS011;14241;49.260;10.496;2023-04-06T04:02:59;9.82;;;8.82;;
26600;SDS011;14241;49.260;10.496;2023-04-06T04:05:24;12.27;;;9.32;;
26600;SDS011;14241;49.260;10.496;2023-04-06T04:07:51;11.82;;;8.98;;
26600;SDS011;14241;49.260;10.496;2023-04-06T04:10:16;10.57;;;9.20;;
26600;SDS011;14241;49.260;10.496;2023-04-06T04:12:41;11.65;;;8.77;;
26600;SDS011;14241;49.260;10.496;2023-04-06T04:15:07;11.05;;;9.43;;
26600;SDS011;14241;49.260;10.496;2023-04-06T04:17:32;12.15;;;9.27;;
26600;SDS011;14241;49.260;10.496;2023-04-06T04:19:58;10.65;;;9.38;;
26600;SDS011;14241;49.260;10.496;2023-04-06T04:22:23;12.73;;;9.35;;
26600;SDS011;14241;49.260;10.496;2023-04-06T04:24:48;12.43;;;8.82;;
26600;SDS011;14241;49.260;10.496;2023-04-06T04:27:14;12.32;;;9.73;;
26600;SDS011;14241;49.260;10.496;2023-04-06T04:29:39;10.85;;;9.63;;
26600;SDS011;14241;49.260;10.496;2023-04-06T04:32:04;15.82;;;9.68;;
26600;SDS011;14241;49.260;10.496;2023-04-06T04:34:29;12.18;;;9.52;;
26600;SDS011;14241;49.260;10.496;2023-04-06T04:36:56;12.75;;;10.05;;
26600;SDS011;14241;49.260;10.496;2023-04-06T04:39:21;11.95;;;9.32;;
26600;SDS011;14241;49.260;10.496;2023-04-06T04:41:46;13.40;;;9.05;;
26600;SDS011;14241;49.260;10.496;2023-04-06T04:44:12;9.85;;;8.82;;
26600;SDS011;14241;49.260;10.496;2023-04-06T04:46:37;12.20;;;9.35;;
26600;SDS011;14241;49.260;10.496;2023-04-06T04:49:02;11.93;;;9.80;;
26600;SDS011;14241;49.260;10.496;2023-04-06T04:51:28;10.77;;;9.30;;
26600;SDS011;14241;49.260;10.496;2023-04-06T04:53:53;11.93;;;9.95;;
26600;SDS011;14241;49.260;10.496;2023-04-06T04:56:18;13.30;;;9.68;;
26600;SDS011;14241;49.260;10.496;2023-04-06T04:58:43;12.85;;;9.77;;
26600;SDS011;14241;49.260;10.496;2023-04-06T05:01:09;13.43;;;9.93;;
26600;SDS011;14241;49.260;10.496;2023-04-06T05:03:34;12.38;;;9.73;;
26600;SDS011;14241;49.260;10.496;2023-04-06T05:06:00;12.50;;;9.85;;
26600;SDS011;14241;49.260;10.496;2023-04-06T05:08:26;11.57;;;9.70;;
26600;SDS011;14241;49.260;10.496;2023-04-06T05:10:51;14.45;;;9.63;;
26600;SDS011;14241;49.260;10.496;2023-04-06T05:13:16;10.75;;;9.63;;
26600;SDS011;14241;49.260;10.496;2023-04-06T05:15:42;15.40;;;13.48;;
26600;SDS011;14241;49.260;10.496;2023-04-06T05:18:07;16.73;;;14.68;;
26600;SDS011;14241;49.260;10.496;2023-04-06T05:20:33;27.98;;;22.25;;
26600;SDS011;14241;49.260;10.496;2023-04-06T05:22:58;23.35;;;18.67;;
26600;SDS011;14241;49.260;10.496;2023-04-06T05:25:23;16.70;;;15.00;;
26600;SDS011;14241;49.260;10.496;2023-04-06T05:27:49;16.27;;;12.80;;
26600;SDS011;14241;49.260;10.496;2023-04-06T05:30:14;13.40;;;10.60;;
26600;SDS011;14241;49.260;10.496;2023-04-06T05:32:39;12.32;;;10.25;;
26600;SDS011;14241;49.260;10.496;2023-04-06T05:35:05;14.95;;;10.73;;
26600;SDS011;14241;49.260;10.496;2023-04-06T05:37:30;14.52;;;10.95;;
26600;SDS011;14241;49.260;10.496;2023-04-06T05:39:56;12.52;;;9.95;;
26600;SDS011;14241;49.260;10.496;2023-04-06T05:42:22;12.43;;;11.23;;
26600;SDS011;14241;49.260;10.496;2023-04-06T05:44:47;13.80;;;10.98;;
26600;SDS011;14241;49.260;10.496;2023-04-06T05:47:12;13.48;;;11.05;;
26600;SDS011;14241;49.260;10.496;2023-04-06T05:49:37;16.50;;;10.55;;
26600;SDS011;14241;49.260;10.496;2023-04-06T05:52:03;14.18;;;10.07;;
26600;SDS011;14241;49.260;10.496;2023-04-06T05:54:29;12.38;;;10.30;;
26600;SDS011;14241;49.260;10.496;2023-04-06T05:56:54;12.98;;;10.50;;
26600;SDS011;14241;49.260;10.496;2023-04-06T05:59:19;10.48;;;9.38;;
26600;SDS011;14241;49.260;10.496;2023-04-06T06:01:45;12.32;;;10.40;;
26600;SDS011;14241;49.260;10.496;2023-04-06T06:04:11;13.68;;;10.65;;
26600;SDS011;14241;49.260;10.496;2023-04-06T06:06:36;16.90;;;10.30;;
26600;SDS011;14241;49.260;10.496;2023-04-06T06:09:01;11.43;;;9.27;;
26600;SDS011;14241;49.260;10.496;2023-04-06T06:11:28;14.90;;;10.48;;
26600;SDS011;14241;49.260;10.496;2023-04-06T06:13:53;15.25;;;10.60;;
26600;SDS011;14241;49.260;10.496;2023-04-06T06:16:19;11.20;;;9.85;;
26600;SDS011;14241;49.260;10.496;2023-04-06T06:18:44;11.15;;;9.80;;
26600;SDS011;14241;49.260;10.496;2023-04-06T06:21:10;11.18;;;10.07;;
26600;SDS011;14241;49.260;10.496;2023-04-06T06:23:37;12.93;;;9.23;;
26600;SDS011;14241;49.260;10.496;2023-04-06T06:26:02;11.05;;;9.35;;
26600;SDS011;14241;49.260;10.496;2023-04-06T06:28:28;12.52;;;10.27;;
26600;SDS011;14241;49.260;10.496;2023-04-06T06:30:53;11.32;;;9.07;;
26600;SDS011;14241;49.260;10.496;2023-04-06T06:33:18;12.02;;;9.90;;
26600;SDS011;14241;49.260;10.496;2023-04-06T06:35:44;12.50;;;9.93;;
26600;SDS011;14241;49.260;10.496;2023-04-06T06:38:09;10.93;;;8.77;;
26600;SDS011;14241;49.260;10.496;2023-04-06T06:40:34;10.43;;;8.80;;
26600;SDS011;14241;49.260;10.496;2023-04-06T06:43:00;11.70;;;9.60;;
26600;SDS011;14241;49.260;10.496;2023-04-06T06:45:25;10.20;;;9.10;;
26600;SDS011;14241;49.260;10.496;2023-04-06T06:47:51;10.43;;;9.32;;
26600;SDS011;14241;49.260;10.496;2023-04-06T06:50:16;11.60;;;9.45;;
26600;SDS011;14241;49.260;10.496;2023-04-06T06:52:41;11.88;;;9.38;;
26600;SDS011;14241;49.260;10.496;2023-04-06T06:55:07;12.40;;;9.07;;
26600;SDS011;14241;49.260;10.496;2023-04-06T06:57:33;10.65;;;9.00;;
26600;SDS011;14241;49.260;10.496;2023-04-06T06:59:58;11.40;;;9.52;;
26600;SDS011;14241;49.260;10.496;2023-04-06T07:02:25;10.70;;;9.40;;
26600;SDS011;14241;49.260;10.496;2023-04-06T07:04:50;10.18;;;9.02;;
26600;SDS011;14241;49.260;10.496;2023-04-06T07:07:15;11.45;;;8.77;;
26600;SDS011;14241;49.260;10.496;2023-04-06T07:09:41;11.27;;;8.15;;
26600;SDS011;14241;49.260;10.496;2023-04-06T07:12:06;11.40;;;8.35;;
26600;SDS011;14241;49.260;10.496;2023-04-06T07:14:31;10.30;;;8.60;;
26600;SDS011;14241;49.260;10.496;2023-04-06T07:16:57;11.00;;;8.20;;
26600;SDS011;14241;49.260;10.496;2023-04-06T07:19:22;10.77;;;8.82;;
26600;SDS011;14241;49.260;10.496;2023-04-06T07:21:47;11.35;;;9.30;;
26600;SDS011;14241;49.260;10.496;2023-04-06T07:24:14;9.30;;;8.25;;
26600;SDS011;14241;49.260;10.496;2023-04-06T07:26:40;9.55;;;8.55;;
26600;SDS011;14241;49.260;10.496;2023-04-06T07:29:05;11.38;;;8.90;;
26600;SDS011;14241;49.260;10.496;2023-04-06T07:31:30;11.10;;;8.80;;
26600;SDS011;14241;49.260;10.496;2023-04-06T07:33:56;11.43;;;8.90;;
26600;SDS011;14241;49.260;10.496;2023-04-06T07:36:21;15.55;;;9.82;;
26600;SDS011;14241;49.260;10.496;2023-04-06T07:38:46;13.23;;;9.48;;
26600;SDS011;14241;49.260;10.496;2023-04-06T07:41:12;10.82;;;9.02;;
26600;SDS011;14241;49.260;10.496;2023-04-06T07:43:37;13.95;;;9.73;;
26600;SDS011;14241;49.260;10.496;2023-04-06T07:46:03;12.43;;;10.25;;
26600;SDS011;14241;49.260;10.496;2023-04-06T07:48:28;10.77;;;9.15;;
26600;SDS011;14241;49.260;10.496;2023-04-06T07:51:00;11.40;;;9.05;;
26600;SDS011;14241;49.260;10.496;2023-04-06T07:53:25;11.88;;;9.43;;
26600;SDS011;14241;49.260;10.496;2023-04-06T07:55:50;10.85;;;9.20;;
26600;SDS011;14241;49.260;10.496;2023-04-06T07:58:16;14.60;;;8.70;;
26600;SDS011;14241;49.260;10.496;2023-04-06T08:00:41;11.38;;;9.68;;
26600;SDS011;14241;49.260;10.496;2023-04-06T08:03:06;10.93;;;9.25;;
26600;SDS011;14241;49.260;10.496;2023-04-06T08:05:32;13.20;;;9.57;;
26600;SDS011;14241;49.260;10.496;2023-04-06T08:07:57;12.32;;;9.43;;
26600;SDS011;14241;49.260;10.496;2023-04-06T08:10:22;10.93;;;9.48;;
26600;SDS011;14241;49.260;10.496;2023-04-06T08:12:48;11.95;;;9.13;;
26600;SDS011;14241;49.260;10.496;2023-04-06T08:15:13;13.50;;;9.60;;
26600;SDS011;14241;49.260;10.496;2023-04-06T08:17:38;15.70;;;9.68;;
26600;SDS011;14241;49.260;10.496;2023-04-06T08:20:04;11.05;;;8.82;;
26600;SDS011;14241;49.260;10.496;2023-04-06T08:22:29;10.32;;;8.68;;
26600;SDS011;14241;49.260;10.496;2023-04-06T08:24:55;10.70;;;8.88;;
26600;SDS011;14241;49.260;10.496;2023-04-06T08:27:21;15.18;;;9.52;;
26600;SDS011;14241;49.260;10.496;2023-04-06T08:29:47;12.45;;;9.43;;
26600;SDS011;14241;49.260;10.496;2023-04-06T08:32:12;12.57;;;9.30;;
26600;SDS011;14241;49.260;10.496;2023-04-06T08:34:38;12.70;;;9.18;;
26600;SDS011;14241;49.260;10.496;2023-04-06T08:37:03;13.77;;;9.18;;
26600;SDS011;14241;49.260;10.496;2023-04-06T08:39:29;13.25;;;9.68;;
26600;SDS011;14241;49.260;10.496;2023-04-06T08:41:55;13.30;;;9.63;;
26600;SDS011;14241;49.260;10.496;2023-04-06T08:44:24;13.80;;;9.48;;
26600;SDS011;14241;49.260;10.496;2023-04-06T08:46:50;12.55;;;8.65;;
26600;SDS011;14241;49.260;10.496;2023-04-06T08:49:16;13.23;;;9.48;;
26600;SDS011;14241;49.260;10.496;2023-04-06T08:51:41;12.48;;;9.07;;
26600;SDS011;14241;49.260;10.496;2023-04-06T08:54:07;11.23;;;8.20;;
26600;SDS011;14241;49.260;10.496;2023-04-06T08:56:32;13.65;;;9.18;;
26600;SDS011;14241;49.260;10.496;2023-04-06T08:58:58;12.38;;;8.65;;
26600;SDS011;14241;49.260;10.496;2023-04-06T09:01:27;11.70;;;8.38;;
26600;SDS011;14241;49.260;10.496;2023-04-06T09:03:56;12.75;;;9.20;;
26600;SDS011;14241;49.260;10.496;2023-04-06T09:06:21;15.25;;;9.48;;
26600;SDS011;14241;49.260;10.496;2023-04-06T09:08:47;10.40;;;8.65;;
26600;SDS011;14241;49.260;10.496;2023-04-06T09:11:13;12.20;;;8.48;;
26600;SDS011;14241;49.260;10.496;2023-04-06T09:13:45;11.77;;;9.05;;
26600;SDS011;14241;49.260;10.496;2023-04-06T09:16:10;11.68;;;8.38;;
26600;SDS011;14241;49.260;10.496;2023-04-06T09:18:36;11.75;;;8.60;;
26600;SDS011;14241;49.260;10.496;2023-04-06T09:21:02;10.20;;;8.13;;
26600;SDS011;14241;49.260;10.496;2023-04-06T09:23:27;10.68;;;7.22;;
26600;SDS011;14241;49.260;10.496;2023-04-06T09:26:04;10.35;;;6.45;;
26600;SDS011;14241;49.260;10.496;2023-04-06T09:28:40;9.57;;;6.78;;
26600;SDS011;14241;49.260;10.496;2023-04-06T09:31:05;10.20;;;7.55;;
26600;SDS011;14241;49.260;10.496;2023-04-06T09:33:30;11.80;;;8.45;;
26600;SDS011;14241;49.260;10.496;2023-04-06T09:35:56;9.27;;;7.78;;
26600;SDS011;14241;49.260;10.496;2023-04-06T09:38:21;9.55;;;7.70;;
26600;SDS011;14241;49.260;10.496;2023-04-06T09:40:47;10.35;;;8.02;;
26600;SDS011;14241;49.260;10.496;2023-04-06T09:43:22;10.07;;;7.60;;
26600;SDS011;14241;49.260;10.496;2023-04-06T09:45:47;10.00;;;7.95;;
26600;SDS011;14241;49.260;10.496;2023-04-06T09:48:13;13.57;;;8.20;;
26600;SDS011;14241;49.260;10.496;2023-04-06T09:50:38;10.90;;;8.25;;
26600;SDS011;14241;49.260;10.496;2023-04-06T09:53:05;10.35;;;8.13;;
26600;SDS011;14241;49.260;10.496;2023-04-06T09:55:36;9.95;;;8.00;;
26600;SDS011;14241;49.260;10.496;2023-04-06T09:58:05;10.80;;;8.40;;
26600;SDS011;14241;49.260;10.496;2023-04-06T10:00:36;10.07;;;7.80;;
26600;SDS011;14241;49.260;10.496;2023-04-06T10:03:29;10.45;;;7.30;;
26600;SDS011;14241;49.260;10.496;2023-04-06T10:05:55;10.55;;;8.32;;
26600;SDS011;14241;49.260;10.496;2023-04-06T10:08:24;10.90;;;8.00;;
26600;SDS011;14241;49.260;10.496;2023-04-06T10:10:53;10.63;;;7.85;;
26600;SDS011;14241;49.260;10.496;2023-04-06T10:13:18;9.40;;;7.63;;
26600;SDS011;14241;49.260;10.496;2023-04-06T10:15:44;10.82;;;8.45;;
26600;SDS011;14241;49.260;10.496;2023-04-06T10:18:09;10.27;;;7.88;;
26600;SDS011;14241;49.260;10.496;2023-04-06T10:20:37;10.18;;;7.93;;
26600;SDS011;14241;49.260;10.496;2023-04-06T10:23:13;12.80;;;8.02;;
26600;SDS011;14241;49.260;10.496;2023-04-06T10:25:51;8.95;;;8.00;;
26600;SDS011;14241;49.260;10.496;2023-04-06T10:28:16;10.63;;;7.85;;
26600;SDS011;14241;49.260;10.496;2023-04-06T10:30:44;9.40;;;7.80;;
26600;SDS011;14241;49.260;10.496;2023-04-06T10:33:16;12.57;;;8.60;;
26600;SDS011;14241;49.260;10.496;2023-04-06T10:35:42;9.68;;;7.90;;
26600;SDS011;14241;49.260;10.496;2023-04-06T10:38:07;10.68;;;8.52;;
26600;SDS011;14241;49.260;10.496;2023-04-06T10:40:35;10.73;;;8.95;;
26600;SDS011;14241;49.260;10.496;2023-04-06T10:43:07;10.13;;;8.27;;
26600;SDS011;14241;49.260;10.496;2023-04-06T10:45:33;12.30;;;10.45;;
26600;SDS011;14241;49.260;10.496;2023-04-06T10:47:58;11.52;;;10.30;;
26600;SDS011;14241;49.260;10.496;2023-04-06T10:50:24;10.30;;;8.52;;
26600;SDS011;14241;49.260;10.496;2023-04-06T10:52:59;10.20;;;8.15;;
26600;SDS011;14241;49.260;10.496;2023-04-06T10:55:25;10.63;;;8.60;;
26600;SDS011;14241;49.260;10.496;2023-04-06T10:57:51;12.63;;;8.60;;
26600;SDS011;14241;49.260;10.496;2023-04-06T11:00:16;9.60;;;8.43;;
26600;SDS011;14241;49.260;10.496;2023-04-06T11:02:42;12.60;;;8.43;;
26600;SDS011;14241;49.260;10.496;2023-04-06T11:05:07;13.25;;;9.48;;
26600;SDS011;14241;49.260;10.496;2023-04-06T11:07:33;9.77;;;7.78;;
26600;SDS011;14241;49.260;10.496;2023-04-06T11:09:59;13.15;;;8.70;;
26600;SDS011;14241;49.260;10.496;2023-04-06T11:12:27;10.40;;;8.52;;
26600;SDS011;14241;49.260;10.496;2023-04-06T11:14:54;9.25;;;7.88;;
26600;SDS011;14241;49.260;10.496;2023-04-06T11:17:27;10.32;;;8.77;;
26600;SDS011;14241;49.260;10.496;2023-04-06T11:19:52;10.38;;;7.82;;
26600;SDS011;14241;49.260;10.496;2023-04-06T11:22:18;10.80;;;8.57;;
26600;SDS011;14241;49.260;10.496;2023-04-06T11:24:43;10.32;;;7.88;;
26600;SDS011;14241;49.260;10.496;2023-04-06T11:27:08;10.60;;;8.05;;
26600;SDS011;14241;49.260;10.496;2023-04-06T11:29:34;9.32;;;8.02;;
26600;SDS011;14241;49.260;10.496;2023-04-06T11:32:05;11.93;;;8.68;;
26600;SDS011;14241;49.260;10.496;2023-04-06T11:34:35;11.57;;;8.48;;
26600;SDS011;14241;49.260;10.496;2023-04-06T11:37:07;13.00;;;9.50;;
26600;SDS011;14241;49.260;10.496;2023-04-06T11:39:54;11.88;;;9.40;;
26600;SDS011;14241;49.260;10.496;2023-04-06T11:42:25;11.57;;;9.38;;
26600;SDS011;14241;49.260;10.496;2023-04-06T11:44:51;10.90;;;8.65;;
26600;SDS011;14241;49.260;10.496;2023-04-06T11:47:18;10.60;;;8.75;;
26600;SDS011;14241;49.260;10.496;2023-04-06T11:49:43;11.45;;;8.95;;
26600;SDS011;14241;49.260;10.496;2023-04-06T11:52:16;9.52;;;8.23;;
26600;SDS011;14241;49.260;10.496;2023-04-06T11:54:41;12.88;;;8.77;;
26600;SDS011;14241;49.260;10.496;2023-04-06T11:57:07;12.02;;;8.30;;
26600;SDS011;14241;49.260;10.496;2023-04-06T11:59:33;10.85;;;8.45;;
26600;SDS011;14241;49.260;10.496;2023-04-06T12:01:58;11.93;;;7.75;;
26600;SDS011;14241;49.260;10.496;2023-04-06T12:04:23;12.95;;;7.80;;
26600;SDS011;14241;49.260;10.496;2023-04-06T12:06:49;11.25;;;9.27;;
26600;SDS011;14241;49.260;10.496;2023-04-06T12:09:16;8.65;;;7.55;;
26600;SDS011;14241;49.260;10.496;2023-04-06T12:11:42;12.60;;;7.88;;
26600;SDS011;14241;49.260;10.496;2023-04-06T12:14:08;10.90;;;8.10;;
26600;SDS011;14241;49.260;10.496;2023-04-06T12:16:33;11.55;;;8.65;;
26600;SDS011;14241;49.260;10.496;2023-04-06T12:18:59;10.90;;;7.72;;
26600;SDS011;14241;49.260;10.496;2023-04-06T12:21:26;10.57;;;8.90;;
26600;SDS011;14241;49.260;10.496;2023-04-06T12:23:51;12.27;;;7.95;;
26600;SDS011;14241;49.260;10.496;2023-04-06T12:26:17;10.00;;;8.15;;
26600;SDS011;14241;49.260;10.496;2023-04-06T12:28:43;9.63;;;7.68;;
26600;SDS011;14241;49.260;10.496;2023-04-06T12:31:19;10.68;;;7.13;;
26600;SDS011;14241;49.260;10.496;2023-04-06T12:33:48;8.68;;;7.53;;
26600;SDS011;14241;49.260;10.496;2023-04-06T12:36:17;10.55;;;7.50;;
26600;SDS011;14241;49.260;10.496;2023-04-06T12:38:49;13.45;;;8.75;;
26600;SDS011;14241;49.260;10.496;2023-04-06T12:41:15;9.80;;;7.30;;
26600;SDS011;14241;49.260;10.496;2023-04-06T12:43:41;10.95;;;7.35;;
26600;SDS011;14241;49.260;10.496;2023-04-06T12:46:07;11.93;;;8.30;;
26600;SDS011;14241;49.260;10.496;2023-04-06T12:48:32;12.63;;;7.35;;
26600;SDS011;14241;49.260;10.496;2023-04-06T12:50:58;10.02;;;7.97;;
26600;SDS011;14241;49.260;10.496;2023-04-06T12:53:24;8.73;;;7.60;;
26600;SDS011;14241;49.260;10.496;2023-04-06T12:55:49;13.02;;;7.78;;
26600;SDS011;14241;49.260;10.496;2023-04-06T12:58:15;10.95;;;6.82;;
26600;SDS011;14241;49.260;10.496;2023-04-06T13:00:41;10.15;;;7.25;;
26600;SDS011;14241;49.260;10.496;2023-04-06T13:03:07;9.98;;;7.38;;
26600;SDS011;14241;49.260;10.496;2023-04-06T13:05:32;9.88;;;7.70;;
26600;SDS011;14241;49.260;10.496;2023-04-06T13:07:57;10.90;;;7.97;;
26600;SDS011;14241;49.260;10.496;2023-04-06T13:10:22;10.18;;;8.50;;
26600;SDS011;14241;49.260;10.496;2023-04-06T13:12:48;10.10;;;7.97;;
26600;SDS011;14241;49.260;10.496;2023-04-06T13:15:13;11.93;;;6.97;;
26600;SDS011;14241;49.260;10.496;2023-04-06T13:17:39;10.80;;;7.10;;
26600;SDS011;14241;49.260;10.496;2023-04-06T13:20:05;15.25;;;8.38;;
26600;SDS011;14241;49.260;10.496;2023-04-06T13:22:30;9.82;;;7.68;;
26600;SDS011;14241;49.260;10.496;2023-04-06T13:24:56;10.45;;;7.70;;
26600;SDS011;14241;49.260;10.496;2023-04-06T13:27:21;10.77;;;8.05;;
26600;SDS011;14241;49.260;10.496;2023-04-06T13:29:46;8.95;;;7.30;;
26600;SDS011;14241;49.260;10.496;2023-04-06T13:32:12;10.40;;;7.17;;
26600;SDS011;14241;49.260;10.496;2023-04-06T13:34:37;10.27;;;7.60;;
26600;SDS011;14241;49.260;10.496;2023-04-06T13:37:02;11.63;;;7.65;;
26600;SDS011;14241;49.260;10.496;2023-04-06T13:39:28;11.60;;;8.27;;
26600;SDS011;14241;49.260;10.496;2023-04-06T13:41:53;16.77;;;7.20;;
26600;SDS011;14241;49.260;10.496;2023-04-06T13:44:21;9.45;;;6.68;;
26600;SDS011;14241;49.260;10.496;2023-04-06T13:46:47;9.20;;;7.65;;
26600;SDS011;14241;49.260;10.496;2023-04-06T13:49:13;12.25;;;7.35;;
26600;SDS011;14241;49.260;10.496;2023-04-06T13:51:38;10.05;;;8.35;;
26600;SDS011;14241;49.260;10.496;2023-04-06T13:54:04;10.90;;;7.00;;
26600;SDS011;14241;49.260;10.496;2023-04-06T13:56:29;10.95;;;7.85;;
26600;SDS011;14241;49.260;10.496;2023-04-06T13:58:56;10.27;;;6.80;;
26600;SDS011;14241;49.260;10.496;2023-04-06T14:01:21;8.68;;;6.78;;
26600;SDS011;14241;49.260;10.496;2023-04-06T14:03:48;9.65;;;7.50;;
26600;SDS011;14241;49.260;10.496;2023-04-06T14:06:13;13.25;;;7.75;;
26600;SDS011;14241;49.260;10.496;2023-04-06T14:08:38;9.70;;;6.60;;
26600;SDS011;14241;49.260;10.496;2023-04-06T14:11:04;12.95;;;7.22;;
26600;SDS011;14241;49.260;10.496;2023-04-06T14:13:29;11.45;;;8.18;;